Time;durP1;ratioP1;P1;durP2;ratioP2;P2;SDS_P1;SDS_P2;PMS_P1;PMS_P2;Temp;Humidity;BMP_temperature;BMP_pressure;BME280_temperature;BME280_humidity;BME280_pressure;Samples;Min_cycle;Max_cycle;Signal;HPM_P1;HPM_P2
2022/08/21 00:01:30;;;;;;;9.10;5.70;;;;;;;;;;7333532;19;154260;-16
2022/08/21 00:04:08;;;;;;;8.05;5.47;;;;;;;;;;7332368;19;153651;-16
2022/08/21 00:06:42;;;;;;;6.38;5.00;;;;;;;;;;7331832;19;161972;-16
2022/08/21 00:09:13;;;;;;;9.10;6.13;;;;;;;;;;7332886;19;162430;-16
2022/08/21 00:11:44;;;;;;;12.40;6.13;;;;;;;;;;7333291;19;154023;-14
2022/08/21 00:14:17;;;;;;;13.10;5.85;;;;;;;;;;7333232;19;153770;-14
2022/08/21 00:16:49;;;;;;;8.45;5.70;;;;;;;;;;7330886;19;162180;-15
2022/08/21 00:19:24;;;;;;;9.02;5.78;;;;;;;;;;7332637;19;162529;-14
2022/08/21 00:21:58;;;;;;;9.13;5.40;;;;;;;;;;7333219;19;154081;-14
2022/08/21 00:24:29;;;;;;;8.05;5.78;;;;;;;;;;7333129;19;153485;-18
2022/08/21 00:27:01;;;;;;;8.52;6.10;;;;;;;;;;7332719;19;161607;-15
2022/08/21 00:29:32;;;;;;;9.40;6.20;;;;;;;;;;7332401;19;162574;-14
2022/08/21 00:32:03;;;;;;;11.85;5.72;;;;;;;;;;7332828;19;154159;-15
2022/08/21 00:34:37;;;;;;;9.07;5.43;;;;;;;;;;7332665;19;153598;-15
2022/08/21 00:37:08;;;;;;;8.90;5.57;;;;;;;;;;7330123;19;161883;-15
2022/08/21 00:39:40;;;;;;;8.52;5.57;;;;;;;;;;7331251;19;162643;-14
2022/08/21 00:42:14;;;;;;;9.30;5.72;;;;;;;;;;7332436;19;154006;-14
2022/08/21 00:44:46;;;;;;;7.63;5.45;;;;;;;;;;7332369;19;153572;-15
2022/08/21 00:47:18;;;;;;;8.90;5.65;;;;;;;;;;7331800;19;161802;-15
2022/08/21 00:49:52;;;;;;;8.65;5.80;;;;;;;;;;7331806;19;162486;-15
2022/08/21 00:52:27;;;;;;;11.18;6.30;;;;;;;;;;7331536;19;154418;-15
2022/08/21 00:55:00;;;;;;;8.32;6.13;;;;;;;;;;7332038;19;153838;-15
2022/08/21 00:57:36;;;;;;;12.68;5.97;;;;;;;;;;7329454;19;161838;-14
2022/08/21 01:00:13;;;;;;;10.50;6.07;;;;;;;;;;7331702;19;162514;-15
2022/08/21 01:02:44;;;;;;;10.23;5.30;;;;;;;;;;7331955;19;154212;-15
2022/08/21 01:05:19;;;;;;;9.20;5.70;;;;;;;;;;7331974;19;153621;-16
2022/08/21 01:07:50;;;;;;;8.23;4.97;;;;;;;;;;7333548;19;162097;-14
2022/08/21 01:10:22;;;;;;;10.10;5.78;;;;;;;;;;7331504;19;162419;-15
2022/08/21 01:12:55;;;;;;;9.98;6.20;;;;;;;;;;7331675;19;154105;-15
2022/08/21 01:15:31;;;;;;;12.32;6.10;;;;;;;;;;7331457;19;153608;-15
2022/08/21 01:18:03;;;;;;;6.95;5.40;;;;;;;;;;7331857;19;162064;-15
2022/08/21 01:20:38;;;;;;;9.50;5.25;;;;;;;;;;7331238;19;162386;-14
2022/08/21 01:23:12;;;;;;;9.63;6.40;;;;;;;;;;7331324;19;154851;-15
2022/08/21 01:25:43;;;;;;;8.82;6.05;;;;;;;;;;7331386;19;153822;-14
2022/08/21 01:28:16;;;;;;;12.63;6.13;;;;;;;;;;7329679;19;161877;-14
2022/08/21 01:30:48;;;;;;;8.02;5.90;;;;;;;;;;7330762;19;162362;-14
2022/08/21 01:33:20;;;;;;;9.07;6.35;;;;;;;;;;7331280;19;154161;-15
2022/08/21 01:35:51;;;;;;;9.25;6.55;;;;;;;;;;7331139;19;153617;-15
2022/08/21 01:38:25;;;;;;;10.45;6.50;;;;;;;;;;7330764;19;161786;-15
2022/08/21 01:40:56;;;;;;;11.40;6.45;;;;;;;;;;7330668;19;162635;-15
2022/08/21 01:43:28;;;;;;;10.38;5.97;;;;;;;;;;7330930;19;154494;-15
2022/08/21 01:46:02;;;;;;;10.30;5.68;;;;;;;;;;7330658;19;153548;-15
2022/08/21 01:48:33;;;;;;;10.32;6.45;;;;;;;;;;7330599;19;162394;-15
2022/08/21 01:51:04;;;;;;;11.75;6.45;;;;;;;;;;7327844;19;162542;-15
2022/08/21 01:53:39;;;;;;;7.38;5.72;;;;;;;;;;7328969;19;154167;-15
2022/08/21 01:56:14;;;;;;;10.93;6.32;;;;;;;;;;7330521;19;153536;-15
2022/08/21 01:58:49;;;;;;;9.43;5.95;;;;;;;;;;7330239;19;162066;-15
2022/08/21 02:01:20;;;;;;;10.25;6.25;;;;;;;;;;7330061;19;162709;-15
2022/08/21 02:03:51;;;;;;;9.48;6.20;;;;;;;;;;7329390;19;154511;-15
2022/08/21 02:06:22;;;;;;;10.32;7.25;;;;;;;;;;7330274;19;153550;-15
2022/08/21 02:08:56;;;;;;;9.38;6.60;;;;;;;;;;7329763;19;161891;-16
2022/08/21 02:11:28;;;;;;;13.68;6.97;;;;;;;;;;7329706;19;162608;-16
2022/08/21 02:14:00;;;;;;;12.38;6.38;;;;;;;;;;7328682;19;154184;-15
2022/08/21 02:16:31;;;;;;;9.52;6.45;;;;;;;;;;7329825;19;153594;-16
2022/08/21 02:19:05;;;;;;;8.35;5.78;;;;;;;;;;7328489;19;162119;-16
2022/08/21 02:21:37;;;;;;;10.48;6.18;;;;;;;;;;7329459;19;162425;-16
2022/08/21 02:24:11;;;;;;;10.50;6.15;;;;;;;;;;7329537;19;154202;-15
2022/08/21 02:26:42;;;;;;;11.95;6.78;;;;;;;;;;7329631;19;153572;-16
2022/08/21 02:29:13;;;;;;;10.23;6.43;;;;;;;;;;7329157;19;161811;-16
2022/08/21 02:31:47;;;;;;;13.48;7.00;;;;;;;;;;7329136;19;162587;-16
2022/08/21 02:34:18;;;;;;;10.48;6.60;;;;;;;;;;7328318;19;154048;-16
2022/08/21 02:36:50;;;;;;;10.32;6.15;;;;;;;;;;7328828;19;153650;-16
2022/08/21 02:39:23;;;;;;;10.52;6.60;;;;;;;;;;7327803;19;161924;-16
2022/08/21 02:41:54;;;;;;;9.27;6.00;;;;;;;;;;7328867;19;162628;-16
2022/08/21 02:44:25;;;;;;;7.68;5.68;;;;;;;;;;7328033;19;154175;-16
2022/08/21 02:46:57;;;;;;;10.52;6.45;;;;;;;;;;7327861;19;153585;-16
2022/08/21 02:49:28;;;;;;;9.02;6.57;;;;;;;;;;7328440;19;161733;-16
2022/08/21 02:51:59;;;;;;;9.40;6.18;;;;;;;;;;7328542;19;162616;-16
2022/08/21 02:54:33;;;;;;;9.45;6.00;;;;;;;;;;7326184;19;153881;-16
2022/08/21 02:57:04;;;;;;;10.00;5.88;;;;;;;;;;7328475;19;153844;-16
2022/08/21 02:59:35;;;;;;;8.13;5.60;;;;;;;;;;7328116;19;161956;-16
2022/08/21 03:02:07;;;;;;;7.85;5.47;;;;;;;;;;7328493;19;162365;-16
2022/08/21 03:04:38;;;;;;;7.32;5.68;;;;;;;;;;7334271;19;154222;-16
2022/08/21 03:07:11;;;;;;;8.63;5.68;;;;;;;;;;7335132;19;153812;-16
2022/08/21 03:09:45;;;;;;;8.60;6.55;;;;;;;;;;7334882;19;161834;-16
2022/08/21 03:12:16;;;;;;;7.38;5.78;;;;;;;;;;7334618;19;162531;-16
2022/08/21 03:14:47;;;;;;;9.02;5.78;;;;;;;;;;7339641;19;154235;-14
2022/08/21 03:17:18;;;;;;;7.65;5.40;;;;;;;;;;7334601;19;153659;-14
2022/08/21 03:19:49;;;;;;;11.38;6.15;;;;;;;;;;7336465;19;161893;-14
2022/08/21 03:22:23;;;;;;;9.77;6.25;;;;;;;;;;7334571;19;162762;-16
2022/08/21 03:24:57;;;;;;;8.43;5.25;;;;;;;;;;7334668;19;153777;-16
2022/08/21 03:27:30;;;;;;;8.55;6.75;;;;;;;;;;7334878;19;153646;-16
2022/08/21 03:30:02;;;;;;;10.00;5.93;;;;;;;;;;7334270;19;162061;-16
2022/08/21 03:32:34;;;;;;;7.72;6.25;;;;;;;;;;7333161;19;162919;-17
2022/08/21 03:35:06;;;;;;;8.43;5.53;;;;;;;;;;7334620;19;154128;-16
2022/08/21 03:37:37;;;;;;;;;;;;;;;;;;7334472;19;153558;-16
2022/08/21 03:40:14;;;;;;;10.52;6.38;;;;;;;;;;7333948;19;161949;-15
2022/08/21 03:42:46;;;;;;;7.32;5.45;;;;;;;;;;7333961;19;162774;-16
2022/08/21 03:45:19;;;;;;;9.88;5.88;;;;;;;;;;7333084;19;154134;-15
2022/08/21 03:47:55;;;;;;;7.80;5.47;;;;;;;;;;7334189;19;153564;-15
2022/08/21 03:50:28;;;;;;;9.00;6.20;;;;;;;;;;7332685;19;162095;-15
2022/08/21 03:52:59;;;;;;;7.65;5.82;;;;;;;;;;7332859;19;162518;-15
2022/08/21 03:55:33;;;;;;;8.60;5.75;;;;;;;;;;7334088;19;154097;-15
2022/08/21 03:58:05;;;;;;;7.60;5.80;;;;;;;;;;7333164;19;153588;-16
2022/08/21 04:00:37;;;;;;;11.52;6.13;;;;;;;;;;7333329;19;161826;-15
2022/08/21 04:03:08;;;;;;;14.70;6.87;;;;;;;;;;7333319;19;162624;-15
2022/08/21 04:05:40;;;;;;;7.15;5.38;;;;;;;;;;7333685;19;154602;-16
2022/08/21 04:08:11;;;;;;;6.95;5.53;;;;;;;;;;7333665;19;153573;-15
2022/08/21 04:10:47;;;;;;;8.60;6.32;;;;;;;;;;7333206;19;161873;-16
2022/08/21 04:13:19;;;;;;;8.30;6.18;;;;;;;;;;7333114;19;162353;-15
2022/08/21 04:15:50;;;;;;;7.43;5.55;;;;;;;;;;7331649;19;154209;-15
2022/08/21 04:18:24;;;;;;;10.05;5.47;;;;;;;;;;7332497;19;153707;-15
2022/08/21 04:21:02;;;;;;;9.10;6.32;;;;;;;;;;7332939;19;161891;-15
2022/08/21 04:23:34;;;;;;;9.13;6.07;;;;;;;;;;7332788;19;162374;-16
2022/08/21 04:26:08;;;;;;;8.82;6.35;;;;;;;;;;7333188;19;153779;-15
2022/08/21 04:28:40;;;;;;;7.47;5.18;;;;;;;;;;7331780;19;153883;-15
2022/08/21 04:31:11;;;;;;;9.45;6.50;;;;;;;;;;7332657;19;161912;-15
2022/08/21 04:33:42;;;;;;;9.13;6.63;;;;;;;;;;7332439;19;162390;-16
2022/08/21 04:36:13;;;;;;;7.75;5.80;;;;;;;;;;7331782;19;154304;-15
2022/08/21 04:38:44;;;;;;;7.97;5.65;;;;;;;;;;7331889;19;153579;-15
2022/08/21 04:41:18;;;;;;;10.27;6.20;;;;;;;;;;7332447;19;162046;-16
2022/08/21 04:43:49;;;;;;;8.70;6.32;;;;;;;;;;7332008;19;162346;-15
2022/08/21 04:46:21;;;;;;;11.10;6.25;;;;;;;;;;7332626;19;154078;-14
2022/08/21 04:48:52;;;;;;;8.02;5.57;;;;;;;;;;7332517;19;153571;-15
2022/08/21 04:51:27;;;;;;;9.10;5.53;;;;;;;;;;7332092;19;161630;-15
2022/08/21 04:54:02;;;;;;;10.73;6.30;;;;;;;;;;7329901;19;162707;-15
2022/08/21 04:56:39;;;;;;;9.07;5.75;;;;;;;;;;7332260;19;154098;-15
2022/08/21 04:59:18;;;;;;;10.02;5.97;;;;;;;;;;7331307;19;153512;-16
2022/08/21 05:01:49;;;;;;;9.02;6.38;;;;;;;;;;7331827;19;161716;-15
2022/08/21 05:04:25;;;;;;;10.50;5.93;;;;;;;;;;7331782;19;162610;-16
2022/08/21 05:06:59;;;;;;;8.38;6.25;;;;;;;;;;7332344;19;154133;-15
2022/08/21 05:09:31;;;;;;;9.82;6.07;;;;;;;;;;7332009;19;153621;-15
2022/08/21 05:12:06;;;;;;;10.73;6.07;;;;;;;;;;7331447;19;161844;-15
2022/08/21 05:14:37;;;;;;;9.32;6.07;;;;;;;;;;7334104;19;162658;-15
2022/08/21 05:17:09;;;;;;;8.80;5.85;;;;;;;;;;7330502;19;154375;-15
2022/08/21 05:19:40;;;;;;;9.77;5.90;;;;;;;;;;7330132;19;153940;-15
2022/08/21 05:22:11;;;;;;;8.23;5.75;;;;;;;;;;7331217;19;161872;-15
2022/08/21 05:24:42;;;;;;;9.57;6.03;;;;;;;;;;7331119;19;162679;-17
2022/08/21 05:27:16;;;;;;;10.05;6.60;;;;;;;;;;7331441;19;154201;-15
2022/08/21 05:29:48;;;;;;;8.73;6.05;;;;;;;;;;7331156;19;153546;-15
2022/08/21 05:32:19;;;;;;;11.25;6.22;;;;;;;;;;7330806;19;161936;-15
2022/08/21 05:34:50;;;;;;;9.50;6.03;;;;;;;;;;7330736;19;162532;-15
2022/08/21 05:37:22;;;;;;;12.45;6.53;;;;;;;;;;7330008;19;154309;-15
2022/08/21 05:39:54;;;;;;;8.00;5.28;;;;;;;;;;7329498;19;153687;-15
2022/08/21 05:42:30;;;;;;;9.57;6.70;;;;;;;;;;7330774;19;161662;-15
2022/08/21 05:45:01;;;;;;;8.80;6.55;;;;;;;;;;7329375;19;162468;-15
2022/08/21 05:47:33;;;;;;;8.60;5.32;;;;;;;;;;7331153;19;154071;-16
2022/08/21 05:50:04;;;;;;;9.00;6.32;;;;;;;;;;7330891;19;153730;-16
2022/08/21 05:52:35;;;;;;;9.20;6.18;;;;;;;;;;7329642;19;161849;-16
2022/08/21 05:55:07;;;;;;;7.82;5.07;;;;;;;;;;7329995;19;162415;-16
2022/08/21 05:57:44;;;;;;;8.52;5.47;;;;;;;;;;7330586;19;154278;-16
2022/08/21 06:00:17;;;;;;;7.72;5.95;;;;;;;;;;7328909;19;153635;-16
2022/08/21 06:02:48;;;;;;;8.50;6.13;;;;;;;;;;7330027;19;162375;-15
2022/08/21 06:05:20;;;;;;;7.43;5.80;;;;;;;;;;7329766;19;162383;-14
2022/08/21 06:07:51;;;;;;;8.32;6.07;;;;;;;;;;7330363;19;154556;-15
2022/08/21 06:10:22;;;;;;;7.55;5.32;;;;;;;;;;7330186;19;153559;-15
2022/08/21 06:12:58;;;;;;;8.57;6.35;;;;;;;;;;7329633;19;162080;-15
2022/08/21 06:15:32;;;;;;;9.60;6.28;;;;;;;;;;7329279;19;162363;-15
2022/08/21 06:18:03;;;;;;;8.05;5.80;;;;;;;;;;7329978;19;154348;-15
2022/08/21 06:20:34;;;;;;;10.32;5.95;;;;;;;;;;7328222;19;153536;-15
2022/08/21 06:23:06;;;;;;;12.25;6.03;;;;;;;;;;7329461;19;161728;-15
2022/08/21 06:25:38;;;;;;;8.33;5.87;;;;;;;;;;7329529;19;162345;-15
2022/08/21 06:28:13;;;;;;;8.75;6.30;;;;;;;;;;7329728;19;154218;-15
2022/08/21 06:30:44;;;;;;;10.00;5.88;;;;;;;;;;7329439;19;153609;-15
2022/08/21 06:33:15;;;;;;;10.10;6.88;;;;;;;;;;7329149;19;162014;-15
2022/08/21 06:35:47;;;;;;;9.68;5.93;;;;;;;;;;7329008;19;162642;-15
2022/08/21 06:38:19;;;;;;;9.65;5.72;;;;;;;;;;7328037;19;154165;-14
2022/08/21 06:40:50;;;;;;;7.32;5.93;;;;;;;;;;7327634;19;153506;-15
2022/08/21 06:43:24;;;;;;;8.85;6.20;;;;;;;;;;7328950;19;161945;-15
2022/08/21 06:45:55;;;;;;;10.40;6.00;;;;;;;;;;7328652;19;162890;-14
2022/08/21 06:48:27;;;;;;;12.70;5.97;;;;;;;;;;7329029;19;154106;-15
2022/08/21 06:50:58;;;;;;;9.55;6.45;;;;;;;;;;7328772;19;153827;-15
2022/08/21 06:53:29;;;;;;;10.68;6.07;;;;;;;;;;7326850;19;162109;-14
2022/08/21 06:56:01;;;;;;;8.73;6.10;;;;;;;;;;7328368;19;162662;-15
2022/08/21 06:58:35;;;;;;;7.88;6.07;;;;;;;;;;7328872;19;154253;-15
2022/08/21 07:01:06;;;;;;;7.80;6.00;;;;;;;;;;7327036;19;154174;-15
2022/08/21 07:03:43;;;;;;;8.82;6.45;;;;;;;;;;7328109;19;162010;-15
2022/08/21 07:06:14;;;;;;;9.70;6.40;;;;;;;;;;7327994;19;162318;-15
2022/08/21 07:08:46;;;;;;;8.10;6.05;;;;;;;;;;7332705;19;154141;-15
2022/08/21 07:11:20;;;;;;;8.95;6.05;;;;;;;;;;7328401;19;153480;-15
2022/08/21 07:13:56;;;;;;;8.70;5.90;;;;;;;;;;7327896;19;161841;-15
2022/08/21 07:16:29;;;;;;;6.88;5.70;;;;;;;;;;7327875;19;162398;-15
2022/08/21 07:19:03;;;;;;;10.68;5.85;;;;;;;;;;7328101;19;154109;-14
2022/08/21 07:21:34;;;;;;;7.82;5.70;;;;;;;;;;7330095;19;153528;-15
2022/08/21 07:24:06;;;;;;;10.45;6.53;;;;;;;;;;7327720;19;161901;-15
2022/08/21 07:26:38;;;;;;;10.68;6.40;;;;;;;;;;7327394;19;162383;-15
2022/08/21 07:29:12;;;;;;;9.52;5.93;;;;;;;;;;7327814;19;154099;-19
2022/08/21 07:31:43;;;;;;;7.97;5.82;;;;;;;;;;7327622;19;153556;-14
2022/08/21 07:34:15;;;;;;;9.02;5.90;;;;;;;;;;7325700;19;162006;-15
2022/08/21 07:36:46;;;;;;;8.68;5.85;;;;;;;;;;7327038;19;162470;-15
2022/08/21 07:39:17;;;;;;;8.40;6.47;;;;;;;;;;7327531;19;154045;-15
2022/08/21 07:41:48;;;;;;;7.43;5.32;;;;;;;;;;7325672;19;153509;-16
2022/08/21 07:44:22;;;;;;;10.48;5.82;;;;;;;;;;7326783;19;161966;-15
2022/08/21 07:46:53;;;;;;;9.15;6.25;;;;;;;;;;7326714;19;162647;-15
2022/08/21 07:49:24;;;;;;;9.48;5.35;;;;;;;;;;7328134;19;154039;-15
2022/08/21 07:51:59;;;;;;;9.15;6.00;;;;;;;;;;7334121;19;153896;-16
2022/08/21 07:54:30;;;;;;;10.90;6.57;;;;;;;;;;7331082;19;161954;-15
2022/08/21 07:57:02;;;;;;;10.30;6.68;;;;;;;;;;7333553;19;162351;-16
2022/08/21 07:59:35;;;;;;;8.75;6.20;;;;;;;;;;7333674;19;154343;-15
2022/08/21 08:02:07;;;;;;;11.32;6.13;;;;;;;;;;7332006;19;154374;-16
2022/08/21 08:04:38;;;;;;;9.82;6.05;;;;;;;;;;7333251;19;161925;-16
2022/08/21 08:07:10;;;;;;;8.52;5.80;;;;;;;;;;7333396;19;162438;-16
2022/08/21 08:09:41;;;;;;;10.57;6.82;;;;;;;;;;7333804;19;154033;-16
2022/08/21 08:12:13;;;;;;;12.60;6.30;;;;;;;;;;7333509;19;153535;-16
2022/08/21 08:14:47;;;;;;;9.70;5.82;;;;;;;;;;7333020;19;161639;-16
2022/08/21 08:17:21;;;;;;;9.40;6.25;;;;;;;;;;7333125;19;162626;-16
2022/08/21 08:19:53;;;;;;;9.77;6.45;;;;;;;;;;7333341;19;154208;-16
2022/08/21 08:22:26;;;;;;;13.15;6.53;;;;;;;;;;7331406;19;153598;-16
2022/08/21 08:24:57;;;;;;;9.68;6.65;;;;;;;;;;7332894;19;162299;-16
2022/08/21 08:27:29;;;;;;;8.18;6.35;;;;;;;;;;7332659;19;162370;-16
2022/08/21 08:30:02;;;;;;;10.38;6.72;;;;;;;;;;7333094;19;154715;-16
2022/08/21 08:32:34;;;;;;;10.57;6.68;;;;;;;;;;7331789;19;153653;-16
2022/08/21 08:35:08;;;;;;;9.13;6.38;;;;;;;;;;7332244;19;162034;-16
2022/08/21 08:37:40;;;;;;;9.95;6.55;;;;;;;;;;7331216;19;162408;-16
2022/08/21 08:40:16;;;;;;;8.23;6.07;;;;;;;;;;7332766;19;154022;-16
2022/08/21 08:42:50;;;;;;;8.50;5.85;;;;;;;;;;7330577;19;153595;-16
2022/08/21 08:45:26;;;;;;;10.85;6.53;;;;;;;;;;7332141;19;161880;-16
2022/08/21 08:48:03;;;;;;;10.30;5.15;;;;;;;;;;7331749;19;162891;-16
2022/08/21 08:50:43;;;;;;;10.63;5.93;;;;;;;;;;7332099;19;154164;-16
2022/08/21 08:53:18;;;;;;;9.40;6.32;;;;;;;;;;7330933;19;153827;-16
2022/08/21 08:55:50;;;;;;;9.48;6.18;;;;;;;;;;7331633;19;161928;-16
2022/08/21 08:58:25;;;;;;;9.70;6.40;;;;;;;;;;7331590;19;162418;-16
2022/08/21 09:01:00;;;;;;;8.55;6.15;;;;;;;;;;7331146;19;153976;-15
2022/08/21 09:03:31;;;;;;;8.55;6.20;;;;;;;;;;7329158;19;154378;-14
2022/08/21 09:06:14;;;;;;;8.40;5.95;;;;;;;;;;7331183;19;161864;-15
2022/08/21 09:08:58;;;;;;;8.05;5.75;;;;;;;;;;7331238;19;163823;-14
2022/08/21 09:11:37;;;;;;;10.38;6.22;;;;;;;;;;7331488;19;154113;-15
2022/08/21 09:14:17;;;;;;;8.77;5.97;;;;;;;;;;7331070;19;153462;-14
2022/08/21 09:17:00;;;;;;;13.27;5.88;;;;;;;;;;7330620;19;161777;-14
2022/08/21 09:19:38;;;;;;;;;;;;;;;;;;7331594;19;162466;-15
2022/08/21 09:22:19;;;;;;;11.82;5.88;;;;;;;;;;7330808;19;154633;-14
2022/08/21 09:25:07;;;;;;;9.82;5.68;;;;;;;;;;7331117;19;153643;-15
2022/08/21 09:27:40;;;;;;;10.15;6.10;;;;;;;;;;7334980;19;161952;-15
2022/08/21 09:30:16;;;;;;;10.48;6.40;;;;;;;;;;7330738;19;162353;-14
2022/08/21 09:32:53;;;;;;;7.50;5.88;;;;;;;;;;7331167;19;154124;-15
2022/08/21 09:35:31;;;;;;;;;;;;;;;;;;7331163;19;153625;-14
2022/08/21 09:38:07;;;;;;;12.45;5.85;;;;;;;;;;7330659;19;162021;-15
2022/08/21 09:40:43;;;;;;;11.65;6.43;;;;;;;;;;7330424;19;162333;-15
2022/08/21 09:43:21;;;;;;;9.23;6.20;;;;;;;;;;7328768;19;154268;-14
2022/08/21 09:46:10;;;;;;;10.90;6.45;;;;;;;;;;7330558;19;153538;-14
2022/08/21 09:48:50;;;;;;;9.15;5.40;;;;;;;;;;7329070;19;161821;-16
2022/08/21 09:51:24;;;;;;;11.00;5.75;;;;;;;;;;7330110;19;162369;-14
2022/08/21 09:54:03;;;;;;;9.73;6.10;;;;;;;;;;7326963;19;154217;-17
2022/08/21 09:59:30;;;;;;;10.18;5.95;;;;;;;;;;7329876;19;162100;-16
2022/08/21 10:02:25;;;;;;;8.65;5.78;;;;;;;;;;7329108;19;162234;-17
2022/08/21 10:05:01;;;;;;;8.25;6.35;;;;;;;;;;7330318;19;154144;-16
2022/08/21 10:07:35;;;;;;;8.18;5.60;;;;;;;;;;7330412;19;153524;-16
2022/08/21 10:10:11;;;;;;;11.23;6.82;;;;;;;;;;7330004;19;162112;-17
2022/08/21 10:12:54;;;;;;;11.20;6.63;;;;;;;;;;7327391;19;162335;-17
2022/08/21 10:15:42;;;;;;;9.82;6.18;;;;;;;;;;7328480;19;154124;-16
2022/08/21 10:18:22;;;;;;;8.57;6.43;;;;;;;;;;7329414;19;153566;-15
2022/08/21 10:21:04;;;;;;;11.68;5.75;;;;;;;;;;7329152;19;162437;-15
2022/08/21 10:23:48;;;;;;;8.50;5.90;;;;;;;;;;7327183;19;162226;-15
2022/08/21 10:26:32;;;;;;;10.63;6.13;;;;;;;;;;7329409;19;154158;-15
2022/08/21 10:29:10;;;;;;;10.80;6.45;;;;;;;;;;7329184;19;153692;-15
2022/08/21 10:31:50;;;;;;;8.40;5.93;;;;;;;;;;7328452;19;161816;-15
2022/08/21 10:34:34;;;;;;;10.63;6.20;;;;;;;;;;7328679;19;162353;-15
2022/08/21 10:37:21;;;;;;;11.77;6.07;;;;;;;;;;7327769;19;154262;-15
2022/08/21 10:40:05;;;;;;;10.60;5.53;;;;;;;;;;7329287;19;153770;-15
2022/08/21 10:42:49;;;;;;;14.00;5.95;;;;;;;;;;7328336;19;162177;-15
2022/08/21 10:45:33;;;;;;;10.35;5.85;;;;;;;;;;7328873;19;162529;-15
2022/08/21 10:48:07;;;;;;;8.98;5.95;;;;;;;;;;7329084;19;154009;-16
2022/08/21 10:50:47;;;;;;;11.70;5.93;;;;;;;;;;7327621;19;153545;-15
2022/08/21 10:53:35;;;;;;;7.25;5.63;;;;;;;;;;7327463;19;162016;-17
2022/08/21 10:56:17;;;;;;;8.82;6.13;;;;;;;;;;7328419;19;162367;-17
2022/08/21 10:59:01;;;;;;;9.68;5.30;;;;;;;;;;7328422;19;154034;-16
2022/08/21 11:01:41;;;;;;;12.90;5.82;;;;;;;;;;7328595;19;153834;-16
2022/08/21 11:04:31;;;;;;;;;;;;;;;;;;7326767;19;161861;-17
2022/08/21 11:07:09;;;;;;;10.73;5.60;;;;;;;;;;7326917;19;162453;-15
2022/08/21 11:09:48;;;;;;;9.90;5.95;;;;;;;;;;7328560;19;154377;-17
2022/08/21 11:12:27;;;;;;;10.90;5.97;;;;;;;;;;7328352;19;153389;-16
2022/08/21 11:15:04;;;;;;;11.60;5.88;;;;;;;;;;7328042;19;162031;-16
2022/08/21 11:17:41;;;;;;;7.50;5.47;;;;;;;;;;7327453;19;162968;-16
2022/08/21 11:20:18;;;;;;;9.57;5.78;;;;;;;;;;7331007;19;154055;-16
2022/08/21 11:22:54;;;;;;;8.05;5.70;;;;;;;;;;7327749;19;153645;-17
2022/08/21 11:25:37;;;;;;;7.10;5.57;;;;;;;;;;7334674;19;161872;-16
2022/08/21 11:28:14;;;;;;;9.98;5.35;;;;;;;;;;7333525;19;162457;-16
2022/08/21 11:31:00;;;;;;;10.48;5.90;;;;;;;;;;7333535;19;154677;-16
2022/08/21 11:33:46;;;;;;;9.07;5.70;;;;;;;;;;7333154;19;153538;-16
2022/08/21 11:36:25;;;;;;;7.50;5.72;;;;;;;;;;7334192;19;161978;-16
2022/08/21 11:39:04;;;;;;;9.98;5.75;;;;;;;;;;7334168;19;162185;-16
2022/08/21 11:41:43;;;;;;;9.95;5.15;;;;;;;;;;7333191;19;154450;-16
2022/08/21 11:44:21;;;;;;;7.60;5.45;;;;;;;;;;7333011;19;153587;-16
2022/08/21 11:47:01;;;;;;;7.68;5.28;;;;;;;;;;7333930;19;161900;-16
2022/08/21 11:49:46;;;;;;;11.77;5.97;;;;;;;;;;7333648;19;162605;-17
2022/08/21 11:52:22;;;;;;;6.85;4.88;;;;;;;;;;7334174;19;154205;-16
2022/08/21 11:55:00;;;;;;;7.63;4.90;;;;;;;;;;7330197;19;153817;-16
2022/08/21 11:57:41;;;;;;;8.32;5.40;;;;;;;;;;7333345;19;162038;-16
2022/08/21 12:00:20;;;;;;;8.88;4.97;;;;;;;;;;7333530;19;162387;-16
2022/08/21 12:02:54;;;;;;;7.53;5.15;;;;;;;;;;7332689;19;154243;-15
2022/08/21 12:05:34;;;;;;;8.43;4.88;;;;;;;;;;7331395;19;153648;-15
2022/08/21 12:08:12;;;;;;;10.45;4.93;;;;;;;;;;7332639;19;162020;-15
2022/08/21 12:10:45;;;;;;;7.03;5.15;;;;;;;;;;7332051;19;162529;-15
2022/08/21 12:13:31;;;;;;;7.15;4.88;;;;;;;;;;7333321;19;154146;-15
2022/08/21 12:16:13;;;;;;;8.15;4.68;;;;;;;;;;7333024;19;153655;-15
2022/08/21 12:18:45;;;;;;;6.05;4.35;;;;;;;;;;7332717;19;161978;-15
2022/08/21 12:21:27;;;;;;;7.68;4.88;;;;;;;;;;7332820;19;162339;-15
2022/08/21 12:24:17;;;;;;;8.83;4.53;;;;;;;;;;7332530;19;154193;-15
2022/08/21 12:26:54;;;;;;;6.57;4.43;;;;;;;;;;7331805;19;153694;-15
2022/08/21 12:29:31;;;;;;;5.88;4.28;;;;;;;;;;7332750;19;161941;-15
2022/08/21 12:32:06;;;;;;;6.30;4.45;;;;;;;;;;7331397;19;162554;-16
2022/08/21 12:34:40;;;;;;;6.65;3.90;;;;;;;;;;7332442;19;153952;-16
2022/08/21 12:37:21;;;;;;;7.38;4.90;;;;;;;;;;7332180;19;153714;-16
2022/08/21 12:39:55;;;;;;;8.18;4.60;;;;;;;;;;7332365;19;161808;-15
2022/08/21 12:42:41;;;;;;;6.78;4.22;;;;;;;;;;7332243;19;162571;-15
2022/08/21 12:45:21;;;;;;;5.32;4.53;;;;;;;;;;7330709;19;154244;-15
2022/08/21 12:47:58;;;;;;;;;;;;;;;;;;7332979;19;153771;-15
2022/08/21 12:50:38;;;;;;;7.82;4.50;;;;;;;;;;7332170;19;162774;-15
2022/08/21 12:53:15;;;;;;;5.18;4.18;;;;;;;;;;7331170;19;162658;-14
2022/08/21 12:55:47;;;;;;;6.88;4.03;;;;;;;;;;7332083;19;154258;-14
2022/08/21 12:58:22;;;;;;;7.20;4.50;;;;;;;;;;7332204;19;153688;-14
2022/08/21 13:00:59;;;;;;;5.70;4.18;;;;;;;;;;7331927;19;162193;-14
2022/08/21 13:03:31;;;;;;;5.32;4.18;;;;;;;;;;7331741;19;162567;-16
2022/08/21 13:06:02;;;;;;;5.03;3.87;;;;;;;;;;7329506;19;154185;-15
2022/08/21 13:08:37;;;;;;;7.78;4.85;;;;;;;;;;7331979;19;153711;-14
2022/08/21 13:11:10;;;;;;;9.88;3.95;;;;;;;;;;7331525;19;161804;-14
2022/08/21 13:13:42;;;;;;;8.70;4.38;;;;;;;;;;7331223;19;162474;-14
2022/08/21 13:16:21;;;;;;;;;;;;;;;;;;7336777;19;154110;-15
2022/08/21 13:18:59;;;;;;;7.03;4.18;;;;;;;;;;7331709;19;153821;-14
2022/08/21 13:21:33;;;;;;;7.57;3.72;;;;;;;;;;7334030;19;162138;-15
2022/08/21 13:24:17;;;;;;;5.03;4.07;;;;;;;;;;7331182;19;162666;-15
2022/08/21 13:27:20;;;;;;;5.55;4.28;;;;;;;;;;7331412;19;154203;-14
2022/08/21 13:30:04;;;;;;;7.13;3.92;;;;;;;;;;7331130;19;153839;-15
2022/08/21 13:32:42;;;;;;;8.82;4.40;;;;;;;;;;7330769;19;162241;-15
2022/08/21 13:35:18;;;;;;;4.63;3.38;;;;;;;;;;7330819;19;162413;-15
2022/08/21 13:37:51;;;;;;;5.43;4.03;;;;;;;;;;7331188;19;154351;-15
2022/08/21 13:40:27;;;;;;;6.97;4.13;;;;;;;;;;7331013;19;153643;-15
2022/08/21 13:42:59;;;;;;;7.45;3.97;;;;;;;;;;7329810;19;161908;-15
2022/08/21 13:45:35;;;;;;;5.50;3.70;;;;;;;;;;7329205;19;162489;-14
2022/08/21 13:48:08;;;;;;;6.28;3.85;;;;;;;;;;7328045;19;154138;-14
2022/08/21 13:50:41;;;;;;;5.07;3.88;;;;;;;;;;7329649;19;153884;-15
2022/08/21 13:53:24;;;;;;;5.68;3.92;;;;;;;;;;7329413;19;161836;-15
2022/08/21 13:55:55;;;;;;;5.95;4.10;;;;;;;;;;7330050;19;162494;-14
2022/08/21 13:58:31;;;;;;;5.15;4.00;;;;;;;;;;7329334;19;154237;-15
2022/08/21 14:01:04;;;;;;;7.03;3.40;;;;;;;;;;7330528;19;153346;-15
2022/08/21 14:03:44;;;;;;;5.25;3.53;;;;;;;;;;7330035;19;161856;-15
2022/08/21 14:06:18;;;;;;;6.13;3.88;;;;;;;;;;7326794;19;162575;-14
2022/08/21 14:08:54;;;;;;;6.53;4.05;;;;;;;;;;7330348;19;153994;-15
2022/08/21 14:11:25;;;;;;;4.60;3.97;;;;;;;;;;7330144;19;153641;-15
2022/08/21 14:14:02;;;;;;;5.75;4.28;;;;;;;;;;7329736;19;162205;-15
2022/08/21 14:16:45;;;;;;;5.60;3.38;;;;;;;;;;7328413;19;162666;-15
2022/08/21 14:19:23;;;;;;;;;;;;;;;;;;7330528;19;153754;-15
2022/08/21 14:21:55;;;;;;;6.13;3.40;;;;;;;;;;7329879;19;153468;-14
2022/08/21 14:24:31;;;;;;;6.80;4.15;;;;;;;;;;7329450;19;161603;-14
2022/08/21 14:27:07;;;;;;;7.10;3.83;;;;;;;;;;7326622;19;162508;-15
2022/08/21 14:29:40;;;;;;;6.75;3.78;;;;;;;;;;7329696;19;154094;-15
2022/08/21 14:32:16;;;;;;;6.70;3.80;;;;;;;;;;7329375;19;153609;-15
2022/08/21 14:34:50;;;;;;;3.95;3.55;;;;;;;;;;7328822;19;161986;-14
2022/08/21 14:37:21;;;;;;;4.85;3.58;;;;;;;;;;7328859;19;162439;-14
2022/08/21 14:39:52;;;;;;;4.65;3.92;;;;;;;;;;7329267;19;154022;-15
2022/08/21 14:42:23;;;;;;;8.80;4.47;;;;;;;;;;7329243;19;153517;-15
2022/08/21 14:45:04;;;;;;;4.90;3.72;;;;;;;;;;7328811;19;161943;-14
2022/08/21 14:47:37;;;;;;;6.32;3.95;;;;;;;;;;7328796;19;162581;-15
2022/08/21 14:50:12;;;;;;;7.63;3.85;;;;;;;;;;7327648;19;154106;-14
2022/08/21 14:52:45;;;;;;;4.95;3.50;;;;;;;;;;7328582;19;153713;-14
2022/08/21 14:55:18;;;;;;;4.88;3.60;;;;;;;;;;7328347;19;161862;-14
2022/08/21 14:57:52;;;;;;;4.57;3.20;;;;;;;;;;7328544;19;162393;-14
2022/08/21 15:00:25;;;;;;;6.50;3.60;;;;;;;;;;7335547;19;154792;-14
2022/08/21 15:02:57;;;;;;;5.63;3.40;;;;;;;;;;7335408;19;153616;-14
2022/08/21 15:05:31;;;;;;;4.68;3.17;;;;;;;;;;7333511;19;161961;-14
2022/08/21 15:08:04;;;;;;;4.63;3.25;;;;;;;;;;7334958;19;162433;-14
2022/08/21 15:10:36;;;;;;;5.13;3.55;;;;;;;;;;7335230;19;154129;-14
2022/08/21 15:13:17;;;;;;;5.95;3.45;;;;;;;;;;7339238;19;154058;-14
2022/08/21 15:15:52;;;;;;;6.05;3.17;;;;;;;;;;7334688;19;161969;-14